Time;durP1;ratioP1;P1;durP2;ratioP2;P2;SDS_P1;SDS_P2;PMS_P1;PMS_P2;Temp;Humidity;BMP_temperature;BMP_pressure;BME280_temperature;BME280_humidity;BME280_pressure;Samples;Min_cycle;Max_cycle;Signal;HPM_P1;HPM_P2
2022/12/07 00:01:36;;;;;;;10.77;8.65;;;;;;;19.53;50.73;100944.63;5035435;28;20045;-77
2022/12/07 00:04:04;;;;;;;11.82;9.25;;;;;;;19.52;50.53;100933.00;5034401;28;20049;-78
2022/12/07 00:06:37;;;;;;;11.02;8.98;;;;;;;19.53;50.74;100936.56;5035474;28;20060;-77
2022/12/07 00:09:06;;;;;;;11.70;8.87;;;;;;;19.51;50.72;100936.69;5035376;28;20056;-77
2022/12/07 00:11:33;;;;;;;13.65;9.93;;;;;;;19.51;50.51;100939.38;5035377;28;20282;-77
2022/12/07 00:14:04;;;;;;;11.00;8.90;;;;;;;19.51;50.29;100942.06;5035620;28;20044;-77
2022/12/07 00:16:33;;;;;;;12.75;8.98;;;;;;;19.52;50.55;100940.22;5035576;28;20401;-77
2022/12/07 00:19:01;;;;;;;11.07;9.02;;;;;;;19.52;50.38;100940.22;5035268;28;20508;-77
2022/12/07 00:21:32;;;;;;;10.60;9.15;;;;;;;19.51;49.84;100935.84;5034942;28;20694;-77
2022/12/07 00:24:00;;;;;;;12.02;8.68;;;;;;;19.51;50.29;100935.84;5035505;28;20057;-77
2022/12/07 00:26:31;;;;;;;11.63;9.15;;;;;;;19.51;50.18;100933.16;5034886;28;20049;-77
2022/12/07 00:29:04;;;;;;;9.48;8.38;;;;;;;19.51;50.38;100931.31;5035187;28;20485;-75
2022/12/07 00:31:34;;;;;;;11.60;9.02;;;;;;;19.50;49.88;100936.81;5035276;28;20045;-74
2022/12/07 00:34:02;;;;;;;11.40;9.32;;;;;;;19.50;49.89;100923.41;5034815;28;20053;-74
2022/12/07 00:36:29;;;;;;;10.98;9.63;;;;;;;19.51;50.33;100925.09;5033334;28;20049;-78
2022/12/07 00:38:59;;;;;;;10.93;9.07;;;;;;;19.50;49.82;100923.41;5035161;28;20058;-78
2022/12/07 00:41:27;;;;;;;12.77;9.65;;;;;;;19.51;49.82;100917.03;5033566;28;20164;-78
2022/12/07 00:43:55;;;;;;;12.25;9.48;;;;;;;19.50;49.92;100907.28;5033462;28;20485;-78
2022/12/07 00:46:24;;;;;;;11.35;9.57;;;;;;;19.49;50.04;100901.06;5034186;28;20048;-77
2022/12/07 00:48:53;;;;;;;12.25;9.10;;;;;;;19.50;50.02;100901.91;5034110;28;20037;-78
2022/12/07 00:51:23;;;;;;;12.60;9.07;;;;;;;19.49;49.90;100901.06;5034384;28;20064;-77
2022/12/07 00:53:51;;;;;;;11.00;8.40;;;;;;;19.50;50.25;100899.22;5034585;28;20489;-77
2022/12/07 00:56:24;;;;;;;10.75;8.73;;;;;;;19.49;50.09;100890.31;5034747;28;20041;-78
2022/12/07 00:58:53;;;;;;;11.00;8.90;;;;;;;19.48;50.13;100888.59;5035049;28;20053;-78
2022/12/07 01:01:22;;;;;;;11.02;9.32;;;;;;;19.49;49.80;100886.78;5034302;28;20405;-77
2022/12/07 01:03:49;;;;;;;9.75;8.73;;;;;;;19.49;49.91;100887.66;5034542;28;20041;-77
2022/12/07 01:06:18;;;;;;;11.75;9.38;;;;;;;19.49;49.89;100889.47;5034115;28;20060;-77
2022/12/07 01:08:46;;;;;;;11.43;9.18;;;;;;;19.49;50.02;100889.47;5032483;28;20053;-77
2022/12/07 01:11:17;;;;;;;10.13;8.70;;;;;;;19.49;50.03;100886.78;5033315;28;20046;-77
2022/12/07 01:13:45;;;;;;;11.75;10.18;;;;;;;19.48;49.78;100879.69;5034120;28;20049;-77
2022/12/07 01:16:15;;;;;;;9.45;8.35;;;;;;;19.48;49.94;100888.59;5034022;28;20050;-77
2022/12/07 01:18:46;;;;;;;10.07;8.55;;;;;;;19.48;50.19;100893.97;5034546;28;20504;-77
2022/12/07 01:21:17;;;;;;;12.30;10.30;;;;;;;19.48;49.96;100895.81;5034000;28;20052;-77
2022/12/07 01:23:44;;;;;;;12.32;9.75;;;;;;;19.48;50.10;100898.50;5033862;28;20056;-78
2022/12/07 01:26:15;;;;;;;11.77;9.88;;;;;;;19.47;49.73;100886.91;5034025;28;20497;-79
2022/12/07 01:28:43;;;;;;;10.63;8.75;;;;;;;19.50;50.43;100891.19;5034290;28;20045;-79
2022/12/07 01:31:14;;;;;;;10.68;9.00;;;;;;;19.48;49.85;100890.44;5033983;28;20049;-79
2022/12/07 01:33:44;;;;;;;13.63;11.13;;;;;;;19.48;49.64;100898.50;5034208;28;20045;-79
2022/12/07 01:36:23;;;;;;;14.25;11.02;;;;;;;19.47;49.80;100892.28;5032749;28;20049;-79
2022/12/07 01:38:57;;;;;;;13.00;10.18;;;;;;;19.48;49.74;100901.19;5033873;28;20049;-78
2022/12/07 01:41:28;;;;;;;13.23;10.50;;;;;;;19.47;49.68;100897.66;5033729;28;20409;-78
2022/12/07 01:44:29;;;;;;;12.32;10.18;;;;;;;19.48;49.39;100895.81;5034183;28;20484;-78
2022/12/07 01:47:02;;;;;;;12.60;10.35;;;;;;;19.47;49.66;100902.16;5033483;28;20497;-78
2022/12/07 01:49:37;;;;;;;11.85;10.00;;;;;;;19.47;49.52;100907.53;5031741;28;20049;-78
2022/12/07 01:52:04;;;;;;;12.52;10.65;;;;;;;19.47;49.31;100913.75;5033511;28;20371;-78
2022/12/07 01:54:33;;;;;;;12.88;10.70;;;;;;;19.47;49.42;100905.69;5033486;28;20038;-78
2022/12/07 01:57:01;;;;;;;11.13;9.90;;;;;;;19.47;49.27;100896.81;5033653;28;20049;-78
2022/12/07 01:59:28;;;;;;;12.32;10.43;;;;;;;19.47;49.47;100900.34;5033471;28;20060;-78
2022/12/07 02:01:56;;;;;;;12.40;10.18;;;;;;;19.47;49.51;100908.38;5033334;28;20050;-78
2022/12/07 02:04:24;;;;;;;13.30;10.48;;;;;;;19.47;49.38;100905.69;5033582;28;20045;-78
2022/12/07 02:06:53;;;;;;;13.32;10.88;;;;;;;19.46;49.63;100892.41;5033261;28;20045;-78
2022/12/07 02:09:21;;;;;;;13.43;10.60;;;;;;;19.47;49.35;100886.06;5033262;28;20052;-78
2022/12/07 02:11:49;;;;;;;13.77;10.70;;;;;;;19.47;49.41;100891.44;5031934;28;20054;-78
2022/12/07 02:14:16;;;;;;;12.40;10.75;;;;;;;19.46;49.37;100889.72;5033449;28;20045;-79
2022/12/07 02:16:48;;;;;;;13.57;10.38;;;;;;;19.46;49.36;100884.38;5032994;28;20511;-78
2022/12/07 02:19:28;;;;;;;14.07;11.52;;;;;;;19.47;49.27;100875.31;5033489;28;20045;-78
2022/12/07 02:22:07;;;;;;;13.93;10.93;;;;;;;19.46;49.41;100873.63;5033674;28;20516;-78
2022/12/07 02:24:55;;;;;;;12.98;11.18;;;;;;;19.46;49.21;100868.25;5031949;28;20049;-78
2022/12/07 02:27:38;;;;;;;14.77;11.52;;;;;;;19.46;49.32;100868.25;5033298;28;20042;-78
2022/12/07 02:30:08;;;;;;;13.15;10.80;;;;;;;19.45;49.41;100866.56;5032997;28;20054;-77
2022/12/07 02:32:50;;;;;;;13.05;11.00;;;;;;;19.44;49.41;100865.69;5033299;28;20053;-78
2022/12/07 02:35:59;;;;;;;12.17;10.27;;;;;;;19.45;49.21;100863.88;5033173;28;20054;-78
2022/12/07 02:38:35;;;;;;;13.32;11.07;;;;;;;19.44;49.22;100865.69;5020920;28;20299;-78
2022/12/07 02:41:10;;;;;;;12.98;11.55;;;;;;;19.44;49.42;100865.69;5033019;28;20053;-78
2022/12/07 02:43:48;;;;;;;15.30;11.32;;;;;;;19.46;49.36;100854.84;5033462;28;20056;-78
2022/12/07 02:46:40;;;;;;;13.98;11.52;;;;;;;19.45;49.28;100843.25;5033101;28;20381;-78
2022/12/07 02:49:09;;;;;;;12.90;10.48;;;;;;;19.44;49.24;100849.56;5032095;28;20053;-78
2022/12/07 02:51:43;;;;;;;14.23;11.55;;;;;;;19.44;49.34;100846.88;5032630;28;20049;-78
2022/12/07 02:54:12;;;;;;;;;;;;;;;19.43;49.23;100847.88;5033645;28;20112;-78
2022/12/07 02:57:13;;;;;;;16.80;12.10;;;;;;;19.44;49.30;100851.41;5032725;28;19921;-78
2022/12/07 02:59:55;;;;;;;12.30;10.52;;;;;;;19.44;49.20;100864.84;5032765;28;20046;-78
2022/12/07 03:02:38;;;;;;;12.88;10.05;;;;;;;19.44;49.42;100867.53;5033392;28;20049;-78
2022/12/07 03:05:15;;;;;;;;;;;;;;;19.44;49.36;100867.53;5033578;28;20504;-78
2022/12/07 03:07:55;;;;;;;11.52;10.18;;;;;;;19.44;49.30;100862.16;5032680;28;19921;-79
2022/12/07 03:10:41;;;;;;;14.80;10.35;;;;;;;19.43;49.29;100852.41;5032781;28;20424;-78
2022/12/07 03:13:12;;;;;;;11.88;10.23;;;;;;;19.44;49.50;100859.47;5033106;28;20049;-78
2022/12/07 03:16:00;;;;;;;13.88;10.82;;;;;;;19.44;49.02;100854.09;5032730;28;20053;-78
2022/12/07 03:18:30;;;;;;;13.57;10.63;;;;;;;19.43;49.23;100864.00;5032791;28;20057;-78
2022/12/07 03:21:05;;;;;;;12.60;10.40;;;;;;;19.43;49.63;100861.31;5033082;28;20072;-78
2022/12/07 03:23:35;;;;;;;13.10;11.23;;;;;;;19.44;49.14;100851.41;5032695;28;20045;-78
2022/12/07 03:26:05;;;;;;;13.68;11.75;;;;;;;19.43;49.14;100853.25;5032840;28;20050;-78
2022/12/07 03:28:38;;;;;;;15.27;12.07;;;;;;;19.43;49.05;100861.31;5032639;28;20485;-78
2022/12/07 03:31:13;;;;;;;14.25;10.98;;;;;;;19.43;49.21;100847.03;5034299;28;20064;-78
2022/12/07 03:34:07;;;;;;;14.68;11.68;;;;;;;19.43;49.24;100847.88;5034717;28;20378;-78
2022/12/07 03:36:54;;;;;;;;;;;;;;;19.43;49.25;100842.50;5036982;28;20041;-78
2022/12/07 03:39:41;;;;;;;12.65;10.27;;;;;;;19.43;49.28;100842.50;4975075;28;19933;-78
2022/12/07 03:42:10;;;;;;;15.13;11.40;;;;;;;19.42;49.21;100832.75;4975116;28;20067;-78
2022/12/07 03:44:40;;;;;;;13.93;11.02;;;;;;;19.43;49.44;100822.88;4974878;28;20073;-78
2022/12/07 03:47:31;;;;;;;14.48;11.45;;;;;;;19.42;49.33;100818.50;4975649;28;20538;-78
2022/12/07 03:50:02;;;;;;;16.00;11.40;;;;;;;19.42;49.56;100819.34;4974802;28;20051;-78
2022/12/07 03:52:53;;;;;;;15.57;11.48;;;;;;;19.42;49.66;100818.50;4974767;28;20058;-78
2022/12/07 03:55:31;;;;;;;13.68;11.23;;;;;;;19.42;49.57;100813.97;4975001;28;20057;-78
2022/12/07 03:58:08;;;;;;;13.75;11.45;;;;;;;19.43;49.51;100814.81;4975091;28;20069;-78
2022/12/07 04:00:36;;;;;;;16.25;12.10;;;;;;;19.41;49.64;100809.59;4974766;28;20454;-78
2022/12/07 04:03:04;;;;;;;18.40;12.57;;;;;;;19.43;49.53;100809.44;4974619;28;20055;-78
2022/12/07 04:05:31;;;;;;;16.50;11.95;;;;;;;19.41;49.62;100809.59;4974913;28;20546;-78
2022/12/07 04:07:59;;;;;;;14.60;11.75;;;;;;;19.41;49.67;100796.16;4974907;28;20078;-78
2022/12/07 04:10:26;;;;;;;18.02;12.38;;;;;;;19.41;49.91;100798.84;4974456;28;20063;-78
2022/12/07 04:12:55;;;;;;;15.93;12.50;;;;;;;19.42;49.45;100802.38;4974674;28;20054;-75
2022/12/07 04:15:22;;;;;;;17.77;12.88;;;;;;;19.41;49.90;100792.63;4958448;28;20077;-75
2022/12/07 04:17:50;;;;;;;18.05;12.23;;;;;;;19.42;49.75;100797.03;5034972;28;20064;-78
2022/12/07 04:20:18;;;;;;;16.90;12.30;;;;;;;19.42;49.88;100794.34;5035189;28;20049;-78
2022/12/07 04:22:45;;;;;;;17.05;12.35;;;;;;;19.41;49.98;100796.16;5035409;28;20045;-78
2022/12/07 04:25:12;;;;;;;18.10;12.20;;;;;;;19.42;49.81;100797.03;5035040;28;20045;-78
2022/12/07 04:27:40;;;;;;;16.73;11.65;;;;;;;19.42;49.81;100794.34;5034954;28;20053;-78
2022/12/07 04:30:07;;;;;;;15.93;12.45;;;;;;;19.42;49.64;100802.38;5035397;28;20046;-78
2022/12/07 04:32:35;;;;;;;19.63;13.55;;;;;;;19.41;49.48;100798.00;5035355;28;20371;-78
2022/12/07 04:35:03;;;;;;;18.33;13.10;;;;;;;19.42;49.58;100794.34;5035133;28;20050;-78
2022/12/07 04:37:30;;;;;;;13.95;11.00;;;;;;;19.42;49.71;100791.66;5035192;28;20046;-78
2022/12/07 04:39:57;;;;;;;16.02;11.90;;;;;;;19.42;49.73;100795.19;5034905;28;20053;-76
2022/12/07 04:42:25;;;;;;;19.65;12.43;;;;;;;19.42;49.32;100794.34;5033573;28;20052;-77
2022/12/07 04:44:53;;;;;;;18.42;12.43;;;;;;;19.41;49.69;100790.81;5034661;28;20045;-79
2022/12/07 04:47:20;;;;;;;15.30;11.45;;;;;;;19.42;50.04;100794.34;5035205;28;20049;-79
2022/12/07 04:49:47;;;;;;;16.35;12.25;;;;;;;19.42;50.35;100794.34;5035042;28;20045;-78
2022/12/07 04:52:15;;;;;;;16.67;13.52;;;;;;;19.42;50.02;100791.66;5033314;28;20052;-78
2022/12/07 04:54:42;;;;;;;18.80;13.30;;;;;;;19.42;50.04;100792.50;5034976;28;20053;-79
2022/12/07 04:57:09;;;;;;;14.02;11.32;;;;;;;19.43;50.13;100790.66;5033247;28;20049;-78
2022/12/07 04:59:37;;;;;;;22.65;12.93;;;;;;;19.43;50.53;100793.34;5034661;28;20366;-78
2022/12/07 05:02:11;;;;;;;18.95;12.85;;;;;;;19.42;50.01;100791.66;5034999;28;20053;-78
2022/12/07 05:04:39;;;;;;;18.17;13.77;;;;;;;19.43;49.88;100790.66;5034346;28;20053;-78
2022/12/07 05:07:06;;;;;;;17.30;12.60;;;;;;;19.41;49.81;100785.44;5034557;28;20482;-78
2022/12/07 05:09:34;;;;;;;19.48;12.88;;;;;;;19.42;49.71;100794.34;5034705;28;20056;-78
2022/12/07 05:12:01;;;;;;;17.75;12.50;;;;;;;19.41;49.65;100789.97;5034064;28;20076;-78
2022/12/07 05:14:28;;;;;;;18.48;13.60;;;;;;;19.41;49.69;100796.16;5034508;28;20054;-78
2022/12/07 05:16:56;;;;;;;19.95;13.65;;;;;;;19.40;49.66;100797.13;5034014;28;20053;-78
2022/12/07 05:19:23;;;;;;;18.38;13.60;;;;;;;19.41;49.59;100796.16;5034548;28;20403;-78
2022/12/07 05:21:51;;;;;;;19.35;14.07;;;;;;;19.40;49.71;100802.50;5034343;28;20072;-78
2022/12/07 05:24:18;;;;;;;17.58;12.55;;;;;;;19.41;49.71;100800.69;5032613;28;20405;-77
2022/12/07 05:26:46;;;;;;;19.30;14.70;;;;;;;19.41;49.48;100798.00;5033532;28;20045;-77
2022/12/07 05:29:15;;;;;;;18.80;13.85;;;;;;;19.40;49.43;100809.72;5034426;28;20053;-77
2022/12/07 05:31:44;;;;;;;15.98;12.85;;;;;;;19.40;49.29;100809.72;5033976;28;20041;-78
2022/12/07 05:34:12;;;;;;;17.95;12.63;;;;;;;19.40;49.63;100805.19;5033781;28;20056;-78
2022/12/07 05:36:39;;;;;;;16.10;12.30;;;;;;;19.39;49.46;100808.84;5032918;28;20050;-77
2022/12/07 05:39:07;;;;;;;16.95;12.75;;;;;;;19.39;49.28;100803.50;5033703;28;20410;-78
2022/12/07 05:44:20;;;;;;;15.60;12.20;;;;;;;19.40;49.21;100804.34;5033646;28;20068;-78
2022/12/07 05:46:48;;;;;;;18.60;13.23;;;;;;;19.39;49.25;100808.00;5033525;28;20045;-78
2022/12/07 05:49:15;;;;;;;17.80;13.68;;;;;;;19.39;48.64;100810.69;5034002;28;20045;-78
2022/12/07 05:51:42;;;;;;;18.48;12.90;;;;;;;19.39;48.92;100806.19;5033017;28;20373;-78
2022/12/07 05:54:10;;;;;;;14.85;11.77;;;;;;;19.39;49.11;100808.00;5032096;28;20056;-78
2022/12/07 05:56:37;;;;;;;18.67;12.90;;;;;;;19.38;48.94;100801.78;5033759;28;20103;-78
2022/12/07 05:59:23;;;;;;;17.00;12.88;;;;;;;19.39;48.83;100803.50;5033343;28;20041;-78
2022/12/07 06:01:56;;;;;;;18.10;13.25;;;;;;;19.37;49.00;100802.78;5033656;28;20511;-77
2022/12/07 06:04:26;;;;;;;18.50;12.73;;;;;;;19.38;49.13;100812.53;5033251;28;20076;-78
2022/12/07 06:06:53;;;;;;;15.93;11.88;;;;;;;19.39;49.03;100803.50;5033885;28;20049;-78
2022/12/07 06:09:22;;;;;;;19.30;12.32;;;;;;;19.37;48.94;100804.63;5033088;28;20037;-78
2022/12/07 06:14:36;;;;;;;17.70;11.65;;;;;;;19.37;49.00;100800.09;5014167;28;20496;-78
2022/12/07 06:17:04;;;;;;;17.70;12.07;;;;;;;19.37;48.89;100807.31;5013438;28;20405;-78
2022/12/07 06:19:32;;;;;;;14.75;11.60;;;;;;;19.37;49.45;100804.63;5013340;28;20046;-78
2022/12/07 06:21:59;;;;;;;16.90;12.80;;;;;;;19.36;48.93;100803.75;5013662;28;20053;-78
2022/12/07 06:24:27;;;;;;;18.25;11.57;;;;;;;19.36;48.88;100809.13;5011841;28;20065;-78
2022/12/07 06:26:54;;;;;;;17.38;12.88;;;;;;;19.38;49.02;100807.16;5013576;28;20426;-78
2022/12/07 06:29:22;;;;;;;15.77;11.52;;;;;;;19.37;49.01;100807.31;5013560;28;20049;-77
2022/12/07 06:31:49;;;;;;;15.35;11.00;;;;;;;19.37;49.42;100812.69;5012228;28;20057;-77
2022/12/07 06:34:19;;;;;;;15.80;10.57;;;;;;;19.38;49.56;100809.84;5013182;28;20050;-78
2022/12/07 06:36:51;;;;;;;14.40;10.60;;;;;;;19.37;49.72;100805.47;5013854;28;20057;-78
2022/12/07 06:39:19;;;;;;;15.55;10.48;;;;;;;19.39;49.39;100818.75;5012898;28;20054;-78
2022/12/07 06:41:47;;;;;;;12.98;10.27;;;;;;;19.38;49.30;100812.53;5013337;28;20050;-78
2022/12/07 06:44:14;;;;;;;15.57;10.82;;;;;;;19.39;49.13;100819.59;5018695;28;20056;-78
2022/12/07 06:46:41;;;;;;;15.98;10.80;;;;;;;19.38;49.57;100807.16;5033259;28;20052;-78
2022/12/07 06:49:09;;;;;;;13.57;10.23;;;;;;;19.37;49.32;100805.47;5031481;28;20053;-78
2022/12/07 06:51:40;;;;;;;15.05;10.70;;;;;;;19.37;48.97;100807.31;5033227;28;20040;-78
2022/12/07 06:54:12;;;;;;;11.38;9.52;;;;;;;19.37;49.08;100810.84;5031636;28;20038;-77
2022/12/07 06:56:40;;;;;;;14.38;10.50;;;;;;;19.38;49.35;100820.59;5031091;28;20053;-77
2022/12/07 06:59:07;;;;;;;12.85;8.80;;;;;;;19.37;49.15;100813.53;5032927;28;20045;-77
2022/12/07 07:01:35;;;;;;;13.65;10.30;;;;;;;19.37;49.06;100823.41;5033186;28;20041;-77
2022/12/07 07:04:03;;;;;;;11.98;9.45;;;;;;;19.38;49.19;100822.44;5032754;28;20045;-78
2022/12/07 07:06:31;;;;;;;12.88;9.88;;;;;;;19.36;49.18;100825.22;5035766;28;20049;-79
2022/12/07 07:08:58;;;;;;;11.48;8.93;;;;;;;19.36;48.98;100830.59;5036960;28;20057;-80
2022/12/07 07:11:25;;;;;;;11.32;9.38;;;;;;;19.37;49.06;100831.47;5036564;28;20061;-80
2022/12/07 07:13:53;;;;;;;11.02;8.38;;;;;;;19.38;49.93;100844.75;5037314;28;20041;-80
2022/12/07 07:16:20;;;;;;;11.98;8.50;;;;;;;19.38;49.42;100844.75;5037323;28;20049;-80
2022/12/07 07:18:48;;;;;;;11.77;9.50;;;;;;;19.38;49.28;100842.06;5036622;28;20041;-81
2022/12/07 07:21:15;;;;;;;13.63;9.38;;;;;;;19.39;49.68;100840.22;5036624;28;20049;-81
2022/12/07 07:23:43;;;;;;;10.65;8.48;;;;;;;19.39;49.53;100853.66;5036651;28;20409;-81
2022/12/07 07:26:10;;;;;;;12.93;8.85;;;;;;;19.38;49.45;100850.13;5036377;28;20052;-79
2022/12/07 07:28:38;;;;;;;13.32;8.18;;;;;;;19.39;49.55;100856.34;5036221;28;20045;-79
2022/12/07 07:31:05;;;;;;;11.52;8.80;;;;;;;19.39;49.86;100848.28;5036327;28;20045;-79
2022/12/07 07:33:33;;;;;;;11.40;9.00;;;;;;;19.39;49.83;100865.25;5035317;28;20050;-81
2022/12/07 07:36:00;;;;;;;13.02;8.75;;;;;;;19.40;50.40;100856.19;5035386;28;20398;-81
2022/12/07 07:38:27;;;;;;;11.52;7.85;;;;;;;19.40;50.22;100858.88;5036066;28;20041;-84
2022/12/07 07:40:55;;;;;;;14.70;8.70;;;;;;;19.41;50.38;100862.44;5026600;28;20050;-79
2022/12/07 07:43:22;;;;;;;13.68;8.45;;;;;;;19.39;49.80;100857.19;5035914;28;20045;-77
2022/12/07 07:45:50;;;;;;;12.57;8.65;;;;;;;19.41;50.39;100857.91;5034532;28;20045;-78
2022/12/07 07:48:18;;;;;;;11.65;8.68;;;;;;;19.41;49.64;100865.13;5034759;28;20052;-77
2022/12/07 07:50:45;;;;;;;14.50;8.85;;;;;;;19.41;49.69;100871.34;5035501;28;20042;-78
2022/12/07 07:53:12;;;;;;;14.07;9.10;;;;;;;19.40;49.02;100866.94;5035290;28;20049;-78
2022/12/07 07:55:40;;;;;;;13.65;11.30;;;;;;;19.27;46.68;100864.44;5032284;28;20385;-78
2022/12/07 07:58:07;;;;;;;16.98;12.38;;;;;;;19.23;46.99;100860.31;5035581;28;20042;-78
2022/12/07 08:00:34;;;;;;;13.35;10.48;;;;;;;19.23;47.98;100864.84;5035455;28;20052;-79
2022/12/07 08:03:02;;;;;;;13.93;9.43;;;;;;;19.23;48.75;100871.06;5035430;28;20389;-79
2022/12/07 08:05:29;;;;;;;12.55;9.23;;;;;;;19.25;48.86;100873.63;5035730;28;20060;-79
2022/12/07 08:07:57;;;;;;;11.55;8.40;;;;;;;19.24;49.11;100872.78;5035547;28;20046;-79
2022/12/07 08:10:25;;;;;;;9.90;8.60;;;;;;;19.25;48.91;100874.47;5036261;28;20049;-79
2022/12/07 08:13:10;;;;;;;10.38;7.40;;;;;;;19.26;48.82;100878.84;5037106;28;20511;-79
2022/12/07 08:15:40;;;;;;;14.35;8.23;;;;;;;19.27;48.99;100880.56;5036555;28;20060;-78
2022/12/07 08:18:08;;;;;;;10.80;8.48;;;;;;;19.27;48.88;100880.56;5035991;28;20046;-78
2022/12/07 08:20:37;;;;;;;11.05;8.25;;;;;;;19.27;48.96;100883.25;5036068;28;20046;-78
2022/12/07 08:23:05;;;;;;;9.75;7.85;;;;;;;19.29;48.74;100888.50;5035317;28;20045;-78
2022/12/07 08:25:33;;;;;;;10.48;8.20;;;;;;;19.27;48.64;100888.59;5035900;28;20050;-78
2022/12/07 08:28:01;;;;;;;8.95;7.72;;;;;;;19.29;48.42;100893.00;5036148;28;20049;-78
2022/12/07 08:30:29;;;;;;;11.63;8.80;;;;;;;19.28;48.46;100892.13;5034519;28;20056;-78
2022/12/07 08:32:57;;;;;;;9.68;7.80;;;;;;;19.29;49.04;100899.22;5035895;28;20494;-78
2022/12/07 08:35:25;;;;;;;14.07;9.50;;;;;;;19.30;48.07;100889.34;5034049;28;20515;-78
2022/12/07 08:37:52;;;;;;;14.32;10.82;;;;;;;19.27;47.67;100891.28;5036110;28;20053;-78
2022/12/07 08:40:20;;;;;;;18.23;12.73;;;;;;;19.26;46.65;100894.13;5035805;28;20049;-78
2022/12/07 08:42:49;;;;;;;15.23;12.95;;;;;;;19.24;46.51;100891.56;5035022;28;20064;-79
2022/12/07 08:45:18;;;;;;;16.60;14.07;;;;;;;19.22;46.04;100898.88;5035662;28;20044;-79
2022/12/07 08:48:14;;;;;;;15.60;13.98;;;;;;;19.21;46.16;100888.28;5034289;28;20045;-78
2022/12/07 08:50:41;;;;;;;16.35;14.50;;;;;;;19.20;46.13;100895.50;5035444;28;20050;-78
2022/12/07 08:53:16;;;;;;;15.88;14.27;;;;;;;19.20;45.83;100899.97;5035324;28;20049;-78
2022/12/07 08:55:46;;;;;;;15.38;13.73;;;;;;;19.17;45.62;100898.44;5033869;28;20038;-78
2022/12/07 08:58:13;;;;;;;18.70;16.30;;;;;;;19.14;44.47;100892.47;5034910;28;20539;-78
2022/12/07 09:00:41;;;;;;;15.80;14.15;;;;;;;19.10;45.28;100897.22;5035294;28;20053;-76
2022/12/07 09:03:08;;;;;;;16.50;14.80;;;;;;;19.10;45.47;100897.22;5034675;28;20072;-78
2022/12/07 09:05:36;;;;;;;16.23;13.43;;;;;;;19.10;45.61;100897.22;5035110;28;20052;-79
2022/12/07 09:08:03;;;;;;;16.52;14.20;;;;;;;19.11;45.74;100901.63;5033710;28;20062;-80
2022/12/07 09:10:31;;;;;;;15.40;13.52;;;;;;;19.12;45.73;100895.28;5034625;28;20401;-78
2022/12/07 09:13:01;;;;;;;16.70;12.50;;;;;;;19.13;46.07;100894.31;5035161;28;20042;-78
2022/12/07 09:15:30;;;;;;;13.68;12.23;;;;;;;19.14;46.29;100901.38;5035587;28;20056;-78
2022/12/07 09:17:57;;;;;;;18.52;13.13;;;;;;;19.14;45.96;100906.72;5034857;28;20045;-77
2022/12/07 09:20:24;;;;;;;14.30;12.80;;;;;;;19.15;45.76;100905.75;5034149;28;20421;-78
2022/12/07 09:22:54;;;;;;;14.70;13.20;;;;;;;19.15;45.74;100911.09;5034608;28;20087;-76
2022/12/07 09:25:21;;;;;;;13.38;12.00;;;;;;;19.15;45.85;100910.25;5034211;28;20060;-76
2022/12/07 09:27:55;;;;;;;14.95;13.20;;;;;;;19.16;45.51;100911.97;5034421;28;20049;-76
2022/12/07 09:30:23;;;;;;;12.52;11.23;;;;;;;19.16;45.96;100912.84;5035204;28;20041;-76
2022/12/07 09:32:53;;;;;;;17.23;12.90;;;;;;;19.16;45.86;100903.91;5033616;28;20054;-80
2022/12/07 09:35:21;;;;;;;16.15;13.95;;;;;;;19.16;45.25;100898.53;5035037;28;20046;-79
2022/12/07 09:37:48;;;;;;;14.02;12.32;;;;;;;19.15;45.75;100900.38;5034100;28;20477;-78
2022/12/07 09:40:19;;;;;;;13.05;11.23;;;;;;;19.17;45.90;100897.59;5034307;28;20061;-79
2022/12/07 09:42:54;;;;;;;12.18;9.85;;;;;;;19.17;46.39;100906.47;5033437;28;20056;-77
2022/12/07 09:45:36;;;;;;;11.38;8.57;;;;;;;19.18;47.17;100894.75;5034740;28;20045;-77
2022/12/07 09:48:04;;;;;;;11.32;8.63;;;;;;;19.19;46.92;100892.91;5034479;28;20061;-77
2022/12/07 09:50:31;;;;;;;10.43;8.35;;;;;;;19.20;47.24;100902.66;5034831;28;20045;-77
2022/12/07 09:53:15;;;;;;;9.70;8.20;;;;;;;19.20;47.30;100900.88;5034941;28;20568;-79
2022/12/07 09:55:42;;;;;;;;;;;;;;;19.20;47.38;100900.88;5035286;28;20041;-77
2022/12/07 09:58:34;;;;;;;8.25;6.97;;;;;;;19.20;47.30;100898.19;5034341;28;19921;-77
2022/12/07 10:01:21;;;;;;;11.43;7.10;;;;;;;19.21;47.61;100891.81;5034626;28;20045;-78
2022/12/07 10:03:58;;;;;;;8.18;7.05;;;;;;;19.21;47.57;100890.97;5034754;28;20393;-77
2022/12/07 10:06:26;;;;;;;9.38;6.60;;;;;;;19.21;47.58;100888.28;5034816;28;20049;-77
2022/12/07 10:08:53;;;;;;;8.68;7.18;;;;;;;19.20;47.77;100886.56;5034575;28;20401;-77
2022/12/07 10:11:20;;;;;;;8.82;7.65;;;;;;;19.21;47.70;100882.94;5034703;28;20053;-77
2022/12/07 10:13:53;;;;;;;8.65;7.32;;;;;;;19.21;47.64;100882.94;5032942;28;20500;-77
2022/12/07 10:16:23;;;;;;;9.93;7.60;;;;;;;19.22;47.76;100884.63;5034520;28;20519;-77
2022/12/07 10:18:52;;;;;;;7.85;7.03;;;;;;;19.22;47.71;100880.09;5034341;28;20049;-77
2022/12/07 10:21:25;;;;;;;10.23;7.40;;;;;;;19.21;47.70;100873.03;5033875;28;20046;-76
2022/12/07 10:24:01;;;;;;;7.65;6.80;;;;;;;19.21;47.73;100875.72;5034688;28;20060;-77
2022/12/07 10:26:38;;;;;;;7.93;6.90;;;;;;;19.22;47.71;100865.84;5034900;28;20067;-77
2022/12/07 10:29:11;;;;;;;9.35;7.30;;;;;;;19.22;47.71;100865.84;5034466;28;20045;-77
2022/12/07 10:31:40;;;;;;;8.65;7.50;;;;;;;19.23;47.57;100870.22;5032830;28;20041;-76
2022/12/07 10:34:24;;;;;;;8.82;6.72;;;;;;;19.22;47.74;100865.84;5033935;28;20489;-77
2022/12/07 10:36:53;;;;;;;7.13;6.43;;;;;;;19.22;47.95;100864.00;5034103;28;20057;-76
2022/12/07 10:39:22;;;;;;;10.25;7.38;;;;;;;19.22;47.65;100858.63;5033739;28;20045;-77
2022/12/07 10:41:57;;;;;;;8.07;7.15;;;;;;;19.23;47.74;100864.84;5037021;28;20045;-77
2022/12/07 10:44:33;;;;;;;8.50;6.82;;;;;;;19.23;47.96;100856.78;5037572;28;20504;-77
2022/12/07 10:47:19;;;;;;;8.25;6.38;;;;;;;19.22;47.76;100850.56;5032707;28;20060;-77
2022/12/07 10:50:02;;;;;;;8.13;7.22;;;;;;;19.23;48.05;100846.91;5038171;28;20057;-76
2022/12/07 10:52:51;;;;;;;8.20;6.75;;;;;;;19.22;47.98;100850.56;5038334;28;20382;-77
2022/12/07 10:55:47;;;;;;;7.00;6.30;;;;;;;19.22;47.92;100845.22;5035897;28;20049;-76
2022/12/07 10:58:45;;;;;;;8.43;6.60;;;;;;;19.23;47.97;100846.06;5035475;28;20048;-76
2022/12/07 11:01:37;;;;;;;7.15;6.10;;;;;;;19.23;47.83;100835.31;5036934;28;20397;-76
2022/12/07 11:04:35;;;;;;;7.90;6.13;;;;;;;19.24;47.80;100837.91;5036975;28;20048;-76
2022/12/07 11:07:20;;;;;;;7.07;6.18;;;;;;;19.24;47.96;100839.69;5036256;28;20503;-76
2022/12/07 11:09:56;;;;;;;10.93;6.13;;;;;;;19.23;48.12;100833.47;5036468;28;20045;-77
2022/12/07 11:13:01;;;;;;;7.30;6.13;;;;;;;19.25;48.06;100825.31;5035231;28;20057;-76
2022/12/07 11:16:01;;;;;;;7.32;5.93;;;;;;;19.23;48.01;100820.06;5036262;28;20400;-77
2022/12/07 11:18:47;;;;;;;10.55;9.07;;;;;;;19.24;46.64;100816.41;5036868;28;20049;-77
2022/12/07 11:21:42;;;;;;;8.18;6.75;;;;;;;19.24;47.62;100810.16;5035346;28;20041;-76
2022/12/07 11:24:17;;;;;;;10.57;6.55;;;;;;;19.23;47.43;100798.59;5037809;28;20049;-78
2022/12/07 11:26:47;;;;;;;8.07;7.28;;;;;;;19.22;47.23;100799.59;5037457;28;20049;-77
2022/12/07 11:29:53;;;;;;;6.70;6.00;;;;;;;19.23;47.96;100803.13;5036992;28;20076;-77
2022/12/07 11:32:34;;;;;;;6.90;6.07;;;;;;;19.23;47.54;100793.22;5037269;28;20046;-78
2022/12/07 11:35:15;;;;;;;7.32;6.45;;;;;;;19.23;47.74;100792.38;5037446;28;20057;-79
2022/12/07 11:37:44;;;;;;;8.15;6.43;;;;;;;19.24;48.13;100794.06;5037201;28;20065;-77
2022/12/07 11:40:30;;;;;;;7.15;6.35;;;;;;;19.24;48.02;100791.38;5036493;28;20049;-78
2022/12/07 11:43:26;;;;;;;6.95;5.93;;;;;;;19.24;47.71;100780.66;5036836;28;20427;-76